Time;durP1;ratioP1;P1;durP2;ratioP2;P2;SDS_P1;SDS_P2;PMS_P1;PMS_P2;Temp;Humidity;BMP_temperature;BMP_pressure;BME280_temperature;BME280_humidity;BME280_pressure;Samples;Min_cycle;Max_cycle;Signal;HPM_P1;HPM_P2
2022/12/26 00:00:55;;;;;;;51.78;28.20;;;;;;;;;;5052057;28;20076;-70
2022/12/26 00:03:23;;;;;;;54.05;28.63;;;;;;;;;;5051984;28;20040;-71
2022/12/26 00:05:51;;;;;;;52.47;29.42;;;;;;;;;;5051741;28;20095;-71
2022/12/26 00:08:18;;;;;;;55.08;30.42;;;;;;;;;;5055001;28;20045;-70
2022/12/26 00:10:46;;;;;;;60.78;34.75;;;;;;;;;;5055853;28;20049;-70
2022/12/26 00:13:13;;;;;;;69.43;37.42;;;;;;;;;;5055709;28;20060;-70
2022/12/26 00:16:06;;;;;;;64.82;34.95;;;;;;;;;;5055832;28;20048;-70
2022/12/26 00:18:33;;;;;;;60.17;34.30;;;;;;;;;;5055578;28;20037;-71
2022/12/26 00:21:01;;;;;;;53.80;30.23;;;;;;;;;;5055799;28;20394;-70
2022/12/26 00:23:28;;;;;;;55.63;30.27;;;;;;;;;;5055539;28;20111;-70
2022/12/26 00:25:56;;;;;;;49.30;27.42;;;;;;;;;;5055401;28;20072;-70
2022/12/26 00:28:23;;;;;;;50.55;26.63;;;;;;;;;;5055831;28;20041;-71
2022/12/26 00:30:51;;;;;;;50.28;27.60;;;;;;;;;;5054214;28;20069;-71
2022/12/26 00:33:18;;;;;;;52.63;28.38;;;;;;;;;;5055125;28;20306;-71
2022/12/26 00:35:45;;;;;;;50.85;28.08;;;;;;;;;;5055359;28;20041;-71
2022/12/26 00:38:13;;;;;;;54.72;29.23;;;;;;;;;;5055382;28;20441;-70
2022/12/26 00:40:42;;;;;;;53.38;29.27;;;;;;;;;;5055277;28;20045;-71
2022/12/26 00:43:09;;;;;;;55.25;28.48;;;;;;;;;;5055228;28;20490;-71
2022/12/26 00:45:37;;;;;;;55.50;30.27;;;;;;;;;;5055106;28;20048;-71
2022/12/26 00:48:04;;;;;;;56.67;31.17;;;;;;;;;;5055036;28;20065;-71
2022/12/26 00:50:32;;;;;;;57.63;30.90;;;;;;;;;;5053814;28;20087;-71
2022/12/26 00:53:01;;;;;;;54.67;28.50;;;;;;;;;;5055305;28;20041;-71
2022/12/26 00:55:28;;;;;;;55.80;29.88;;;;;;;;;;5053719;28;20103;-72
2022/12/26 00:57:56;;;;;;;56.60;29.42;;;;;;;;;;5054884;28;20072;-72
2022/12/26 01:00:23;;;;;;;56.80;29.70;;;;;;;;;;5054882;28;20453;-71
2022/12/26 01:02:51;;;;;;;54.67;29.02;;;;;;;;;;5054894;28;20120;-72
2022/12/26 01:05:19;;;;;;;70.35;34.42;;;;;;;;;;5053535;28;20498;-72
2022/12/26 01:07:46;;;;;;;68.45;33.90;;;;;;;;;;5054773;28;20108;-71
2022/12/26 01:10:33;;;;;;;62.42;32.15;;;;;;;;;;5054770;28;20493;-71
2022/12/26 01:13:01;;;;;;;65.53;32.90;;;;;;;;;;5053380;28;20040;-72
2022/12/26 01:15:28;;;;;;;70.35;34.97;;;;;;;;;;5054612;28;20274;-72
2022/12/26 01:17:58;;;;;;;73.13;35.22;;;;;;;;;;5054327;28;20056;-72
2022/12/26 01:20:26;;;;;;;62.05;33.33;;;;;;;;;;5053437;28;20049;-72
2022/12/26 01:22:54;;;;;;;64.25;34.08;;;;;;;;;;5054701;28;20059;-72
2022/12/26 01:25:22;;;;;;;60.38;33.35;;;;;;;;;;5054396;28;20045;-73
2022/12/26 01:27:50;;;;;;;56.80;31.35;;;;;;;;;;5054369;28;20540;-72
2022/12/26 01:30:18;;;;;;;61.17;31.80;;;;;;;;;;5054498;28;20048;-73
2022/12/26 01:32:46;;;;;;;61.72;31.48;;;;;;;;;;5054323;28;20045;-72
2022/12/26 01:35:13;;;;;;;61.38;31.50;;;;;;;;;;5054360;28;20041;-73
2022/12/26 01:37:41;;;;;;;59.17;31.40;;;;;;;;;;5054371;28;20564;-73
2022/12/26 01:40:08;;;;;;;54.13;30.75;;;;;;;;;;5054056;28;20037;-73
2022/12/26 01:42:39;;;;;;;57.10;29.48;;;;;;;;;;5054251;28;20494;-73
2022/12/26 01:45:22;;;;;;;55.45;29.00;;;;;;;;;;5054474;28;20470;-72
2022/12/26 01:47:55;;;;;;;54.25;28.48;;;;;;;;;;5054158;28;20057;-72
2022/12/26 01:50:29;;;;;;;53.55;27.83;;;;;;;;;;5052802;28;20423;-72
2022/12/26 01:52:59;;;;;;;54.23;27.63;;;;;;;;;;5054359;28;20391;-72
2022/12/26 01:55:29;;;;;;;51.20;28.65;;;;;;;;;;5053919;28;20098;-72
2022/12/26 01:57:58;;;;;;;50.53;26.63;;;;;;;;;;5053852;28;20041;-72
2022/12/26 02:00:26;;;;;;;51.40;26.40;;;;;;;;;;5054017;28;20036;-72
2022/12/26 02:06:00;;;;;;;49.58;26.58;;;;;;;;;;5031663;28;20045;-72
2022/12/26 02:08:32;;;;;;;55.85;27.33;;;;;;;;;;5031590;28;20084;-72
2022/12/26 02:10:59;;;;;;;54.58;27.80;;;;;;;;;;5043177;28;20064;-72
2022/12/26 02:13:28;;;;;;;48.08;25.60;;;;;;;;;;5053718;28;20045;-72
2022/12/26 02:15:56;;;;;;;54.67;26.20;;;;;;;;;;5053532;28;20466;-72
2022/12/26 02:18:23;;;;;;;60.33;27.42;;;;;;;;;;5053552;28;20098;-72
2022/12/26 02:21:00;;;;;;;61.08;26.55;;;;;;;;;;5053558;28;20041;-72
2022/12/26 02:23:27;;;;;;;70.43;27.45;;;;;;;;;;5053473;28;20051;-72
2022/12/26 02:25:55;;;;;;;69.32;28.83;;;;;;;;;;5053424;28;20426;-72
2022/12/26 02:28:22;;;;;;;74.10;27.83;;;;;;;;;;5053148;28;20051;-72
2022/12/26 02:30:53;;;;;;;93.07;27.38;;;;;;;;;;5052689;28;20045;-72
2022/12/26 02:33:39;;;;;;;84.07;26.77;;;;;;;;;;5053139;28;20128;-72
2022/12/26 02:36:15;;;;;;;99.35;27.25;;;;;;;;;;5053068;28;20041;-72
2022/12/26 02:38:45;;;;;;;92.43;24.50;;;;;;;;;;5053133;28;20091;-73
2022/12/26 02:41:31;;;;;;;110.07;27.80;;;;;;;;;;5053086;28;20044;-72
2022/12/26 02:47:01;;;;;;;78.25;23.27;;;;;;;;;;5053011;28;20041;-72
2022/12/26 02:47:03;;;;;;;104.38;24.08;;;;;;;;;;5052817;28;20128;-72
2022/12/26 03:15:16;;;;;;;50.88;20.63;;;;;;;;;;5052659;28;20124;-72
2022/12/26 03:17:46;;;;;;;47.03;21.17;;;;;;;;;;5052534;28;20041;-72
2022/12/26 03:20:21;;;;;;;39.42;19.58;;;;;;;;;;5051311;28;20045;-72
2022/12/26 03:22:52;;;;;;;63.17;20.48;;;;;;;;;;5052381;28;20135;-72
2022/12/26 03:28:22;;;;;;;42.80;19.95;;;;;;;;;;5052383;28;20068;-72
2022/12/26 03:30:50;;;;;;;42.58;21.10;;;;;;;;;;5052454;28;20107;-72
2022/12/26 03:36:33;;;;;;;43.17;20.05;;;;;;;;;;5051552;28;20128;-72
2022/12/26 03:39:06;;;;;;;;;;;;;;;;;;5052948;28;20068;-72
2022/12/26 04:19:25;;;;;;;;;;;;;;;;;;5056293;28;20056;-72
2022/12/26 04:45:10;;;;;;;75.03;37.30;;;;;;;;;;5055230;28;20049;-72
2022/12/26 04:50:10;;;;;;;71.18;35.35;;;;;;;;;;5055336;28;20162;-72
2022/12/26 04:50:25;;;;;;;72.20;37.60;;;;;;;;;;5053996;28;20456;-72
2022/12/26 04:52:58;;;;;;;71.20;36.80;;;;;;;;;;5054513;28;20041;-72
2022/12/26 04:55:28;;;;;;;125.68;58.30;;;;;;;;;;5055075;28;20049;-72
2022/12/26 04:57:56;;;;;;;104.25;51.22;;;;;;;;;;5053904;28;20499;-72
2022/12/26 05:00:24;;;;;;;92.60;45.20;;;;;;;;;;5055086;28;20041;-71
2022/12/26 05:11:22;;;;;;;94.32;48.72;;;;;;;;;;5054759;28;20060;-72
2022/12/26 05:13:51;;;;;;;80.50;41.80;;;;;;;;;;5054471;28;20051;-72
2022/12/26 05:30:18;;;;;;;65.07;34.15;;;;;;;;;;5054358;28;20037;-72
2022/12/26 05:35:32;;;;;;;59.30;31.90;;;;;;;;;;5054195;28;20036;-72
2022/12/26 05:38:00;;;;;;;59.88;31.55;;;;;;;;;;5054187;28;20049;-72
2022/12/26 05:40:27;;;;;;;52.30;30.38;;;;;;;;;;5054251;28;20134;-72
2022/12/26 05:42:55;;;;;;;51.97;29.20;;;;;;;;;;5054086;28;20036;-71
2022/12/26 05:45:22;;;;;;;57.65;30.70;;;;;;;;;;5052812;28;20490;-72
2022/12/26 05:47:50;;;;;;;50.05;27.90;;;;;;;;;;5054251;28;20052;-72
2022/12/26 05:50:18;;;;;;;49.67;30.10;;;;;;;;;;5053910;28;20098;-72
2022/12/26 05:52:46;;;;;;;52.58;30.02;;;;;;;;;;5053870;28;20056;-72
2022/12/26 05:55:13;;;;;;;54.85;28.90;;;;;;;;;;5053966;28;20037;-72
2022/12/26 05:57:41;;;;;;;54.08;30.33;;;;;;;;;;5053952;28;20048;-72
2022/12/26 06:00:08;;;;;;;49.58;27.13;;;;;;;;;;5053872;28;20060;-71
2022/12/26 06:02:36;;;;;;;48.88;28.70;;;;;;;;;;5053783;28;20395;-72
2022/12/26 06:05:04;;;;;;;52.85;28.38;;;;;;;;;;5052720;28;20048;-72
2022/12/26 06:07:31;;;;;;;52.22;30.27;;;;;;;;;;5053642;28;20045;-72
2022/12/26 06:09:58;;;;;;;47.75;28.02;;;;;;;;;;5053795;28;20071;-72
2022/12/26 06:12:26;;;;;;;53.50;28.02;;;;;;;;;;5053594;28;20046;-72
2022/12/26 06:14:53;;;;;;;49.88;26.67;;;;;;;;;;5053054;28;20063;-72
2022/12/26 06:17:21;;;;;;;49.25;24.85;;;;;;;;;;5052882;28;20086;-72
2022/12/26 06:19:48;;;;;;;47.15;25.80;;;;;;;;;;5053017;28;20055;-69
2022/12/26 06:22:16;;;;;;;57.45;27.30;;;;;;;;;;5053285;28;20037;-69
2022/12/26 06:24:43;;;;;;;58.42;27.98;;;;;;;;;;5051929;28;20076;-68
2022/12/26 06:27:11;;;;;;;51.75;24.85;;;;;;;;;;5053129;28;20045;-70
2022/12/26 06:29:38;;;;;;;51.35;23.63;;;;;;;;;;5053002;28;20068;-70
2022/12/26 06:32:06;;;;;;;56.80;22.77;;;;;;;;;;5053122;28;20053;-70
2022/12/26 06:34:33;;;;;;;73.82;22.85;;;;;;;;;;5053109;28;20041;-70
2022/12/26 06:37:01;;;;;;;59.05;20.33;;;;;;;;;;5053172;28;20437;-70
2022/12/26 06:39:28;;;;;;;52.10;20.45;;;;;;;;;;5053067;28;20071;-70
2022/12/26 06:41:56;;;;;;;53.97;20.60;;;;;;;;;;5035623;28;20045;-70
2022/12/26 06:44:23;;;;;;;36.00;20.10;;;;;;;;;;5052885;28;20041;-70
2022/12/26 06:46:51;;;;;;;39.88;19.52;;;;;;;;;;5051237;28;20368;-71
2022/12/26 06:49:18;;;;;;;42.58;20.33;;;;;;;;;;5055579;28;20033;-70
2022/12/26 06:51:46;;;;;;;38.53;19.83;;;;;;;;;;5053052;28;20041;-66
2022/12/26 06:54:13;;;;;;;38.05;19.92;;;;;;;;;;5052586;28;20552;-70
2022/12/26 06:56:41;;;;;;;41.92;19.02;;;;;;;;;;5052661;28;20123;-69
2022/12/26 06:59:10;;;;;;;33.30;18.13;;;;;;;;;;5052022;28;20052;-68
2022/12/26 07:01:38;;;;;;;33.97;17.63;;;;;;;;;;5057686;28;20037;-68
2022/12/26 07:04:05;;;;;;;33.83;18.05;;;;;;;;;;5051890;28;20040;-69
2022/12/26 07:06:34;;;;;;;33.92;17.83;;;;;;;;;;5052112;28;20119;-71
2022/12/26 07:09:01;;;;;;;38.95;20.20;;;;;;;;;;5060054;28;20045;-70
2022/12/26 07:11:31;;;;;;;43.10;21.20;;;;;;;;;;5062450;28;20490;-71
2022/12/26 07:13:59;;;;;;;50.28;24.45;;;;;;;;;;5062435;28;20475;-71
2022/12/26 07:16:27;;;;;;;55.20;25.85;;;;;;;;;;5050976;28;20065;-67
2022/12/26 07:18:55;;;;;;;57.13;25.98;;;;;;;;;;5056314;28;20037;-69
2022/12/26 07:21:23;;;;;;;51.10;24.48;;;;;;;;;;5051985;28;20489;-68
2022/12/26 07:23:51;;;;;;;50.20;24.30;;;;;;;;;;5051838;28;20040;-70
2022/12/26 07:26:19;;;;;;;51.30;23.92;;;;;;;;;;5051698;28;20072;-68
2022/12/26 07:28:46;;;;;;;52.88;24.30;;;;;;;;;;5051482;28;20091;-69
2022/12/26 07:31:15;;;;;;;42.90;21.88;;;;;;;;;;5051695;28;20090;-71
2022/12/26 07:33:43;;;;;;;40.13;20.90;;;;;;;;;;5052519;28;20041;-71
2022/12/26 07:36:10;;;;;;;35.03;19.92;;;;;;;;;;5052082;28;20091;-69
2022/12/26 07:38:38;;;;;;;38.42;19.67;;;;;;;;;;5068093;28;20119;-68
2022/12/26 07:43:53;;;;;;;39.47;21.33;;;;;;;;;;5050871;28;20503;-68
2022/12/26 07:46:20;;;;;;;34.90;20.10;;;;;;;;;;5051785;28;20037;-68
2022/12/26 07:48:48;;;;;;;37.97;19.80;;;;;;;;;;5051945;28;20091;-72
2022/12/26 07:51:16;;;;;;;40.30;20.10;;;;;;;;;;5052071;28;20037;-68
2022/12/26 07:53:43;;;;;;;38.72;19.20;;;;;;;;;;5051829;28;20041;-67
2022/12/26 07:56:11;;;;;;;33.95;18.23;;;;;;;;;;5052083;28;20501;-67
2022/12/26 07:58:38;;;;;;;32.15;17.05;;;;;;;;;;5052188;28;20071;-68
2022/12/26 08:01:06;;;;;;;25.90;16.38;;;;;;;;;;5050898;28;20102;-69
2022/12/26 08:03:33;;;;;;;32.17;16.98;;;;;;;;;;5052183;28;20624;-68
2022/12/26 08:06:01;;;;;;;29.17;16.23;;;;;;;;;;5060123;28;20061;-69
2022/12/26 08:08:29;;;;;;;34.30;17.70;;;;;;;;;;5061229;28;20119;-69
2022/12/26 08:11:00;;;;;;;29.88;16.38;;;;;;;;;;5048700;28;20478;-68
2022/12/26 08:13:28;;;;;;;34.30;17.63;;;;;;;;;;5046810;28;20116;-69
2022/12/26 08:15:56;;;;;;;30.27;16.90;;;;;;;;;;5047817;28;20041;-69
2022/12/26 08:18:24;;;;;;;35.70;18.02;;;;;;;;;;5037512;28;20043;-69
2022/12/26 08:20:51;;;;;;;34.38;17.75;;;;;;;;;;5037516;28;20068;-69
2022/12/26 08:23:19;;;;;;;36.03;18.55;;;;;;;;;;5047541;28;20033;-69
2022/12/26 08:25:47;;;;;;;36.42;20.85;;;;;;;;;;5051593;28;20040;-69
2022/12/26 08:28:14;;;;;;;34.40;20.52;;;;;;;;;;5044593;28;20041;-69
2022/12/26 08:30:42;;;;;;;40.20;22.33;;;;;;;;;;5048519;28;20086;-68
2022/12/26 08:33:10;;;;;;;46.28;24.65;;;;;;;;;;5053174;28;20525;-66
2022/12/26 08:35:38;;;;;;;44.78;24.73;;;;;;;;;;5054611;28;20033;-68
2022/12/26 08:38:06;;;;;;;47.50;25.17;;;;;;;;;;5034186;28;20037;-67
2022/12/26 08:40:34;;;;;;;39.35;22.40;;;;;;;;;;5035285;28;20399;-67
2022/12/26 08:43:11;;;;;;;39.05;22.90;;;;;;;;;;5035108;28;20068;-67
2022/12/26 08:45:59;;;;;;;38.40;20.88;;;;;;;;;;5035011;28;20428;-68
2022/12/26 08:48:27;;;;;;;43.80;22.40;;;;;;;;;;5041293;28;20040;-68
2022/12/26 08:51:02;;;;;;;39.03;20.52;;;;;;;;;;5055276;28;20037;-68
2022/12/26 08:53:31;;;;;;;39.28;21.88;;;;;;;;;;5054891;28;20071;-68
2022/12/26 08:55:59;;;;;;;36.25;20.75;;;;;;;;;;5053670;28;20049;-68
2022/12/26 08:58:27;;;;;;;31.73;19.23;;;;;;;;;;5054732;28;20033;-69
2022/12/26 09:00:55;;;;;;;26.27;16.13;;;;;;;;;;5053687;28;20395;-68
2022/12/26 09:03:22;;;;;;;20.17;13.75;;;;;;;;;;5054514;28;20505;-68
2022/12/26 09:05:51;;;;;;;22.50;14.88;;;;;;;;;;5054724;28;20135;-68
2022/12/26 09:08:19;;;;;;;21.67;14.85;;;;;;;;;;5054425;28;20509;-69
2022/12/26 09:10:46;;;;;;;21.38;15.02;;;;;;;;;;5052511;28;20486;-69
2022/12/26 09:13:14;;;;;;;21.90;15.25;;;;;;;;;;5052688;28;20033;-69
2022/12/26 09:15:41;;;;;;;23.52;15.35;;;;;;;;;;5046824;28;20411;-68
2022/12/26 09:18:09;;;;;;;25.52;16.40;;;;;;;;;;5034413;28;20038;-68
2022/12/26 09:20:37;;;;;;;27.40;18.92;;;;;;;;;;5038339;28;20509;-68
2022/12/26 09:23:09;;;;;;;24.85;17.17;;;;;;;;;;5054283;28;20041;-68
2022/12/26 09:25:37;;;;;;;24.05;16.40;;;;;;;;;;5054201;28;20041;-68
2022/12/26 09:28:04;;;;;;;23.35;15.82;;;;;;;;;;5053980;28;20182;-68
2022/12/26 09:30:32;;;;;;;26.02;16.92;;;;;;;;;;5052035;28;20039;-70
2022/12/26 09:32:59;;;;;;;29.80;18.02;;;;;;;;;;5033908;28;20053;-68
2022/12/26 09:35:27;;;;;;;29.45;18.23;;;;;;;;;;5036304;28;20038;-69
2022/12/26 09:37:54;;;;;;;31.95;20.00;;;;;;;;;;5047320;28;20037;-69
2022/12/26 09:40:24;;;;;;;27.17;17.38;;;;;;;;;;5032623;28;20046;-69
2022/12/26 09:42:51;;;;;;;28.05;16.65;;;;;;;;;;5033747;28;20079;-69
2022/12/26 09:45:25;;;;;;;28.75;18.85;;;;;;;;;;5034204;28;20045;-69
2022/12/26 09:48:11;;;;;;;27.48;18.48;;;;;;;;;;5033795;28;20041;-68
2022/12/26 09:50:39;;;;;;;28.25;18.90;;;;;;;;;;5033713;28;20045;-68
2022/12/26 09:53:26;;;;;;;32.60;20.05;;;;;;;;;;5033800;28;20420;-68
2022/12/26 09:55:55;;;;;;;32.72;19.73;;;;;;;;;;5033891;28;20507;-68
2022/12/26 09:58:29;;;;;;;30.65;19.35;;;;;;;;;;5033746;28;20112;-68
2022/12/26 10:00:59;;;;;;;28.60;18.70;;;;;;;;;;5033838;28;20056;-69
2022/12/26 10:03:27;;;;;;;35.60;21.27;;;;;;;;;;5046479;28;20120;-69
2022/12/26 10:05:59;;;;;;;38.20;21.95;;;;;;;;;;5050123;28;20534;-69
2022/12/26 10:08:38;;;;;;;33.45;20.10;;;;;;;;;;5050083;28;20041;-70
2022/12/26 10:11:09;;;;;;;36.75;21.20;;;;;;;;;;5044935;28;20048;-68
2022/12/26 10:14:04;;;;;;;37.95;23.58;;;;;;;;;;5033069;28;20452;-68
2022/12/26 10:16:41;;;;;;;39.30;23.27;;;;;;;;;;5032368;28;20057;-69
2022/12/26 10:19:44;;;;;;;36.80;22.73;;;;;;;;;;5033305;28;20056;-69
2022/12/26 10:22:17;;;;;;;43.53;24.40;;;;;;;;;;5027900;28;20523;-69
2022/12/26 10:24:46;;;;;;;51.08;27.88;;;;;;;;;;5043027;28;20152;-68
2022/12/26 10:27:15;;;;;;;49.58;26.58;;;;;;;;;;5052847;28;20041;-68
2022/12/26 10:29:47;;;;;;;62.08;32.90;;;;;;;;;;5053306;28;20037;-68
2022/12/26 10:32:18;;;;;;;49.55;28.48;;;;;;;;;;5050582;28;20060;-68
2022/12/26 10:34:54;;;;;;;47.47;27.75;;;;;;;;;;5032938;28;20525;-68
2022/12/26 10:37:27;;;;;;;50.10;28.00;;;;;;;;;;5064670;28;20123;-68
2022/12/26 10:39:59;;;;;;;47.47;28.23;;;;;;;;;;5033127;28;20053;-69
2022/12/26 10:42:37;;;;;;;52.40;29.55;;;;;;;;;;5032962;28;20041;-69
2022/12/26 10:45:40;;;;;;;48.95;28.95;;;;;;;;;;5032881;28;20120;-68
2022/12/26 10:48:11;;;;;;;51.13;29.60;;;;;;;;;;5046730;28;20048;-69
2022/12/26 10:50:39;;;;;;;56.75;31.58;;;;;;;;;;5044832;28;20063;-69
2022/12/26 10:53:12;;;;;;;63.10;35.35;;;;;;;;;;5052436;28;20056;-70
2022/12/26 10:55:39;;;;;;;61.22;35.00;;;;;;;;;;5052643;28;20041;-69
2022/12/26 10:58:19;;;;;;;66.13;36.42;;;;;;;;;;5052100;28;20486;-70
2022/12/26 11:00:46;;;;;;;78.30;39.92;;;;;;;;;;5043351;28;20037;-69
2022/12/26 11:03:15;;;;;;;77.82;42.53;;;;;;;;;;5034695;28;20068;-66
2022/12/26 11:05:45;;;;;;;69.00;35.92;;;;;;;;;;5047090;28;20041;-69
2022/12/26 11:08:32;;;;;;;60.42;32.53;;;;;;;;;;5051086;28;20051;-69
2022/12/26 11:11:44;;;;;;;49.20;27.63;;;;;;;;;;5046383;28;20480;-70
2022/12/26 11:14:32;;;;;;;52.15;30.02;;;;;;;;;;5040483;28;20053;-70
2022/12/26 11:17:21;;;;;;;64.43;35.15;;;;;;;;;;5032259;28;20030;-70
2022/12/26 11:19:48;;;;;;;74.18;37.90;;;;;;;;;;5033879;28;20491;-70
2022/12/26 11:22:26;;;;;;;65.97;35.30;;;;;;;;;;5049836;28;20387;-70
2022/12/26 11:25:09;;;;;;;63.92;34.10;;;;;;;;;;5052168;28;20051;-70
2022/12/26 11:27:38;;;;;;;60.40;32.35;;;;;;;;;;5052280;28;20040;-69
2022/12/26 11:30:10;;;;;;;60.13;31.30;;;;;;;;;;5052474;28;20413;-69
2022/12/26 11:32:38;;;;;;;66.93;35.25;;;;;;;;;;5051942;28;20048;-70
2022/12/26 11:35:05;;;;;;;70.32;35.50;;;;;;;;;;5052146;28;20037;-70
2022/12/26 11:37:40;;;;;;;70.28;35.47;;;;;;;;;;5037583;28;20491;-69
2022/12/26 11:40:18;;;;;;;64.90;34.83;;;;;;;;;;5050677;28;20045;-69
2022/12/26 11:42:54;;;;;;;69.10;33.72;;;;;;;;;;5052004;28;20044;-69
2022/12/26 11:45:24;;;;;;;65.38;32.72;;;;;;;;;;5052199;28;20624;-69
2022/12/26 11:47:54;;;;;;;68.85;33.95;;;;;;;;;;5051868;28;20041;-69
2022/12/26 11:50:24;;;;;;;60.25;31.95;;;;;;;;;;5052099;28;20069;-69
2022/12/26 11:52:55;;;;;;;59.17;31.88;;;;;;;;;;5050673;28;20045;-70
2022/12/26 11:55:23;;;;;;;58.17;31.73;;;;;;;;;;5051997;28;20124;-68
2022/12/26 11:57:57;;;;;;;63.15;31.48;;;;;;;;;;5052077;28;20040;-68
2022/12/26 12:00:26;;;;;;;57.00;31.55;;;;;;;;;;5051757;28;20045;-70
2022/12/26 12:02:53;;;;;;;63.03;33.47;;;;;;;;;;5052714;28;20444;-69
2022/12/26 12:05:21;;;;;;;65.57;36.47;;;;;;;;;;5055585;28;20049;-68
2022/12/26 12:07:48;;;;;;;67.65;36.35;;;;;;;;;;5055375;28;20076;-70
2022/12/26 12:10:31;;;;;;;60.17;34.05;;;;;;;;;;5055024;28;20455;-69
2022/12/26 12:13:17;;;;;;;64.68;34.08;;;;;;;;;;5055010;28;20041;-68
2022/12/26 12:15:55;;;;;;;63.08;33.35;;;;;;;;;;5054830;28;20045;-68
2022/12/26 12:18:41;;;;;;;70.47;35.78;;;;;;;;;;5055131;28;20060;-68
2022/12/26 12:21:08;;;;;;;63.58;33.47;;;;;;;;;;5043454;28;20067;-68
2022/12/26 12:23:36;;;;;;;67.32;34.25;;;;;;;;;;5053678;28;20045;-68
2022/12/26 12:26:03;;;;;;;60.28;30.95;;;;;;;;;;5053731;28;20040;-68
2022/12/26 12:28:46;;;;;;;47.83;25.98;;;;;;;;;;5054898;28;20199;-69
2022/12/26 12:31:17;;;;;;;53.50;27.63;;;;;;;;;;5041855;28;20063;-69
2022/12/26 12:33:48;;;;;;;57.97;29.13;;;;;;;;;;5054634;28;20053;-68
2022/12/26 12:36:31;;;;;;;50.83;27.42;;;;;;;;;;5049765;28;20034;-69
2022/12/26 12:39:02;;;;;;;55.28;26.60;;;;;;;;;;5037554;28;20038;-69
2022/12/26 12:41:39;;;;;;;60.85;27.77;;;;;;;;;;5036140;28;20068;-69
2022/12/26 12:44:06;;;;;;;71.38;30.45;;;;;;;;;;5052700;28;20542;-69
2022/12/26 12:46:40;;;;;;;81.80;33.60;;;;;;;;;;5054696;28;20049;-69
2022/12/26 12:49:14;;;;;;;98.10;35.95;;;;;;;;;;5051422;28;20041;-69
2022/12/26 12:51:45;;;;;;;112.35;46.47;;;;;;;;;;5042667;28;20495;-69
2022/12/26 12:54:41;;;;;;;103.72;38.72;;;;;;;;;;5034208;28;20045;-68
2022/12/26 12:57:10;;;;;;;67.07;33.25;;;;;;;;;;5029491;28;20487;-69
2022/12/26 12:59:44;;;;;;;59.85;30.02;;;;;;;;;;5053535;28;20429;-70
2022/12/26 13:02:23;;;;;;;63.40;29.92;;;;;;;;;;5054367;28;20558;-67
2022/12/26 13:04:59;;;;;;;41.75;23.75;;;;;;;;;;5050649;28;20037;-67
2022/12/26 13:07:31;;;;;;;43.28;23.52;;;;;;;;;;5050397;28;20033;-68
2022/12/26 13:10:01;;;;;;;43.80;23.70;;;;;;;;;;5038180;28;20049;-67
2022/12/26 13:12:33;;;;;;;38.20;20.20;;;;;;;;;;5044051;28;20037;-66
2022/12/26 13:15:05;;;;;;;43.80;24.00;;;;;;;;;;5053683;28;20049;-66
2022/12/26 13:17:44;;;;;;;42.50;22.85;;;;;;;;;;5051310;28;20063;-67
2022/12/26 13:20:26;;;;;;;50.25;24.98;;;;;;;;;;5050462;28;20471;-66
2022/12/26 13:25:46;;;;;;;46.67;26.02;;;;;;;;;;5054000;28;20123;-65
2022/12/26 13:28:17;;;;;;;34.38;19.65;;;;;;;;;;5052943;28;20040;-66
2022/12/26 13:30:45;;;;;;;50.50;25.65;;;;;;;;;;5052698;28;20040;-66
2022/12/26 13:33:14;;;;;;;42.92;22.50;;;;;;;;;;5048473;28;20638;-65
2022/12/26 13:35:51;;;;;;;37.85;21.42;;;;;;;;;;5045499;28;20051;-67
2022/12/26 13:38:19;;;;;;;46.72;20.23;;;;;;;;;;5049016;28;20041;-67
2022/12/26 13:40:49;;;;;;;36.58;20.40;;;;;;;;;;5045002;28;20041;-67
2022/12/26 13:44:11;;;;;;;31.67;19.08;;;;;;;;;;5053748;28;20039;-67
2022/12/26 13:46:31;;;;;;;41.03;18.25;;;;;;;;;;5049893;28;20059;-68
2022/12/26 13:48:59;;;;;;;31.63;18.92;;;;;;;;;;5052825;28;20107;-65
2022/12/26 13:51:53;;;;;;;35.70;18.48;;;;;;;;;;5053557;28;20136;-66
2022/12/26 13:54:21;;;;;;;40.70;19.85;;;;;;;;;;5052341;28;20061;-67
2022/12/26 13:57:10;;;;;;;42.63;21.33;;;;;;;;;;5053438;28;20045;-69
2022/12/26 13:59:44;;;;;;;43.17;21.30;;;;;;;;;;5053364;28;20052;-66
2022/12/26 14:02:23;;;;;;;37.72;21.30;;;;;;;;;;5053030;28;20044;-67
2022/12/26 14:05:23;;;;;;;34.47;20.20;;;;;;;;;;5053187;28;20037;-64
2022/12/26 14:08:09;;;;;;;37.08;20.52;;;;;;;;;;5053080;28;20116;-67
2022/12/26 14:10:37;;;;;;;48.80;24.15;;;;;;;;;;5053099;28;20127;-66
2022/12/26 14:13:23;;;;;;;52.00;26.83;;;;;;;;;;5053358;28;20064;-70
2022/12/26 14:15:57;;;;;;;64.93;29.38;;;;;;;;;;5052867;28;20052;-67
2022/12/26 14:18:25;;;;;;;99.72;51.28;;;;;;;;;;5052981;28;20087;-66
2022/12/26 14:20:52;;;;;;;64.45;28.33;;;;;;;;;;5070954;28;20132;-67
2022/12/26 14:23:28;;;;;;;62.38;29.08;;;;;;;;;;5052882;28;20052;-67
2022/12/26 14:26:01;;;;;;;74.00;33.92;;;;;;;;;;5051884;28;20032;-67
2022/12/26 14:28:36;;;;;;;93.50;38.60;;;;;;;;;;5052805;28;20041;-68
2022/12/26 14:31:30;;;;;;;86.57;34.05;;;;;;;;;;5052693;28;20056;-67
2022/12/26 14:34:16;;;;;;;74.80;30.70;;;;;;;;;;5032642;28;20132;-67
2022/12/26 14:36:52;;;;;;;86.32;32.50;;;;;;;;;;5051280;28;20048;-66
2022/12/26 14:39:41;;;;;;;57.67;26.50;;;;;;;;;;5052714;28;20390;-68
2022/12/26 14:44:54;;;;;;;74.43;30.88;;;;;;;;;;5041737;28;20107;-68
2022/12/26 14:47:41;;;;;;;51.60;24.02;;;;;;;;;;5032414;28;20033;-67
2022/12/26 14:50:27;;;;;;;62.47;26.08;;;;;;;;;;5032411;28;20068;-67
2022/12/26 14:52:54;;;;;;;45.97;19.60;;;;;;;;;;5032340;28;20486;-67
2022/12/26 14:55:41;;;;;;;59.13;20.63;;;;;;;;;;5033168;28;20037;-67
2022/12/26 14:58:20;;;;;;;111.32;52.50;;;;;;;;;;5044915;28;20097;-68
2022/12/26 15:00:48;;;;;;;70.15;38.72;;;;;;;;;;5030984;28;20415;-65
2022/12/26 15:03:34;;;;;;;50.42;24.20;;;;;;;;;;5033900;28;20076;-66
2022/12/26 15:06:17;;;;;;;71.18;27.40;;;;;;;;;;5031961;28;20084;-66
2022/12/26 15:08:47;;;;;;;114.43;56.55;;;;;;;;;;5031877;28;20415;-67
2022/12/26 15:11:21;;;;;;;156.77;77.47;;;;;;;;;;5030791;28;20053;-67
2022/12/26 15:13:59;;;;;;;119.18;47.88;;;;;;;;;;5032153;28;20073;-67
2022/12/26 15:16:37;;;;;;;123.20;51.13;;;;;;;;;;5031996;28;20041;-67
2022/12/26 15:19:17;;;;;;;73.00;28.70;;;;;;;;;;5031977;28;20423;-66
2022/12/26 15:22:10;;;;;;;164.43;66.78;;;;;;;;;;5045217;28;20069;-67
2022/12/26 15:24:44;;;;;;;101.07;41.25;;;;;;;;;;5043216;28;20055;-67
2022/12/26 15:27:46;;;;;;;149.63;62.33;;;;;;;;;;5055581;28;20124;-67
2022/12/26 15:30:22;;;;;;;96.43;33.47;;;;;;;;;;5043702;28;20036;-66
2022/12/26 15:32:49;;;;;;;;;;;;;;;;;;5046160;28;20103;-67
2022/12/26 15:35:23;;;;;;;82.68;36.08;;;;;;;;;;5035576;28;19921;-67
2022/12/26 15:38:06;;;;;;;243.55;110.70;;;;;;;;;;5034903;28;20033;-67
2022/12/26 15:40:42;;;;;;;65.63;28.02;;;;;;;;;;5038269;28;20033;-67
2022/12/26 15:43:24;;;;;;;119.38;45.22;;;;;;;;;;5044774;28;20464;-65
2022/12/26 15:45:51;;;;;;;128.95;60.60;;;;;;;;;;5057870;28;20055;-66
2022/12/26 15:48:37;;;;;;;81.38;37.63;;;;;;;;;;5055685;28;20037;-67
2022/12/26 15:51:13;;;;;;;128.15;55.13;;;;;;;;;;5052405;28;20041;-66
2022/12/26 15:53:41;;;;;;;123.97;63.33;;;;;;;;;;5057879;28;20094;-63
2022/12/26 15:56:37;;;;;;;100.63;46.70;;;;;;;;;;5038288;28;20033;-63
2022/12/26 15:59:05;;;;;;;97.80;46.60;;;;;;;;;;5050017;28;20084;-65
2022/12/26 16:01:37;;;;;;;70.30;34.03;;;;;;;;;;5040216;28;20450;-65
2022/12/26 16:04:22;;;;;;;35.50;18.98;;;;;;;;;;5058079;28;20525;-64
2022/12/26 16:07:06;;;;;;;34.63;18.70;;;;;;;;;;5056559;28;20052;-64
2022/12/26 16:09:47;;;;;;;33.88;17.02;;;;;;;;;;5054822;28;20048;-65
2022/12/26 16:12:22;;;;;;;35.70;18.13;;;;;;;;;;5050908;28;20041;-67
2022/12/26 16:14:59;;;;;;;39.25;19.00;;;;;;;;;;5058110;28;20124;-67
2022/12/26 16:17:27;;;;;;;40.08;19.55;;;;;;;;;;5058211;28;20029;-66
2022/12/26 16:19:54;;;;;;;37.60;19.92;;;;;;;;;;5046305;28;20442;-65
2022/12/26 16:22:43;;;;;;;36.33;18.08;;;;;;;;;;5056486;28;20471;-64
2022/12/26 16:25:15;;;;;;;40.33;19.88;;;;;;;;;;5053622;28;20041;-64
2022/12/26 16:27:43;;;;;;;36.50;20.33;;;;;;;;;;5044570;28;20544;-66
2022/12/26 16:30:16;;;;;;;43.25;20.23;;;;;;;;;;5058021;28;20437;-66
2022/12/26 16:32:44;;;;;;;44.40;21.73;;;;;;;;;;5057661;28;20049;-65
2022/12/26 16:35:20;;;;;;;43.67;21.38;;;;;;;;;;5058065;28;20049;-64
2022/12/26 16:37:48;;;;;;;45.88;21.35;;;;;;;;;;5057954;28;20041;-64
2022/12/26 16:40:16;;;;;;;45.08;20.73;;;;;;;;;;5056520;28;20425;-65
2022/12/26 16:43:04;;;;;;;45.08;21.15;;;;;;;;;;5058149;28;20055;-64
2022/12/26 16:45:37;;;;;;;40.92;20.13;;;;;;;;;;5057897;28;20032;-65
2022/12/26 16:48:06;;;;;;;39.17;20.80;;;;;;;;;;5057023;28;20410;-65
2022/12/26 16:50:35;;;;;;;34.78;18.17;;;;;;;;;;5054398;28;20033;-65
2022/12/26 16:53:10;;;;;;;31.45;18.77;;;;;;;;;;5054500;28;20502;-65
2022/12/26 16:55:40;;;;;;;37.30;18.73;;;;;;;;;;5054480;28;20059;-65